sensor_id;sensor_type;location;lat;lon;timestamp;temperature;humidity
36594;DHT22;22603;47.900;8.146;2023-08-17T00:00:29;16.30;99.90
36594;DHT22;22603;47.900;8.146;2023-08-17T00:03:16;16.30;99.90
36594;DHT22;22603;47.900;8.146;2023-08-17T00:06:03;16.40;99.90
36594;DHT22;22603;47.900;8.146;2023-08-17T00:08:51;16.40;99.90
36594;DHT22;22603;47.900;8.146;2023-08-17T00:11:39;16.40;99.90
36594;DHT22;22603;47.900;8.146;2023-08-17T00:14:25;16.50;99.90
36594;DHT22;22603;47.900;8.146;2023-08-17T00:17:12;16.50;99.90
36594;DHT22;22603;47.900;8.146;2023-08-17T00:19:59;16.60;99.90
36594;DHT22;22603;47.900;8.146;2023-08-17T00:22:46;16.60;99.90
36594;DHT22;22603;47.900;8.146;2023-08-17T00:25:34;16.60;99.90
36594;DHT22;22603;47.900;8.146;2023-08-17T00:28:21;16.60;99.90
36594;DHT22;22603;47.900;8.146;2023-08-17T00:31:08;16.60;99.90
36594;DHT22;22603;47.900;8.146;2023-08-17T00:33:54;16.50;99.90
36594;DHT22;22603;47.900;8.146;2023-08-17T00:36:41;16.40;99.90
36594;DHT22;22603;47.900;8.146;2023-08-17T00:39:28;16.30;99.90
36594;DHT22;22603;47.900;8.146;2023-08-17T00:42:16;16.30;99.90
36594;DHT22;22603;47.900;8.146;2023-08-17T00:45:04;16.20;99.90
36594;DHT22;22603;47.900;8.146;2023-08-17T00:47:50;16.10;99.90
36594;DHT22;22603;47.900;8.146;2023-08-17T00:50:38;16.10;99.90
36594;DHT22;22603;47.900;8.146;2023-08-17T00:53:27;16.10;99.90
36594;DHT22;22603;47.900;8.146;2023-08-17T00:56:15;16.00;99.90
36594;DHT22;22603;47.900;8.146;2023-08-17T00:59:04;16.00;99.90
36594;DHT22;22603;47.900;8.146;2023-08-17T01:01:51;16.00;99.90
36594;DHT22;22603;47.900;8.146;2023-08-17T01:04:38;15.90;99.90
36594;DHT22;22603;47.900;8.146;2023-08-17T01:07:25;15.80;99.90
36594;DHT22;22603;47.900;8.146;2023-08-17T01:10:12;15.80;99.90
36594;DHT22;22603;47.900;8.146;2023-08-17T01:13:04;15.80;99.90
36594;DHT22;22603;47.900;8.146;2023-08-17T01:15:57;15.80;99.90
36594;DHT22;22603;47.900;8.146;2023-08-17T01:18:46;15.80;99.90
36594;DHT22;22603;47.900;8.146;2023-08-17T01:21:38;15.70;99.90
36594;DHT22;22603;47.900;8.146;2023-08-17T01:24:28;15.70;99.90
36594;DHT22;22603;47.900;8.146;2023-08-17T01:27:15;15.70;99.90
36594;DHT22;22603;47.900;8.146;2023-08-17T01:30:03;15.60;99.90
36594;DHT22;22603;47.900;8.146;2023-08-17T01:32:55;15.60;99.90
36594;DHT22;22603;47.900;8.146;2023-08-17T01:35:48;15.60;99.90
36594;DHT22;22603;47.900;8.146;2023-08-17T01:38:40;15.60;99.90
36594;DHT22;22603;47.900;8.146;2023-08-17T01:41:30;15.50;99.90
36594;DHT22;22603;47.900;8.146;2023-08-17T01:44:18;15.50;99.90
36594;DHT22;22603;47.900;8.146;2023-08-17T01:47:05;15.40;99.90
36594;DHT22;22603;47.900;8.146;2023-08-17T01:49:51;15.40;99.90
36594;DHT22;22603;47.900;8.146;2023-08-17T01:52:38;15.40;99.90
36594;DHT22;22603;47.900;8.146;2023-08-17T01:55:25;15.30;99.90
36594;DHT22;22603;47.900;8.146;2023-08-17T01:58:13;15.30;99.90
36594;DHT22;22603;47.900;8.146;2023-08-17T02:01:01;15.30;99.90
36594;DHT22;22603;47.900;8.146;2023-08-17T02:03:47;15.30;99.90
36594;DHT22;22603;47.900;8.146;2023-08-17T02:06:34;15.30;99.90
36594;DHT22;22603;47.900;8.146;2023-08-17T02:09:21;15.30;99.90
36594;DHT22;22603;47.900;8.146;2023-08-17T02:12:10;15.20;99.90
36594;DHT22;22603;47.900;8.146;2023-08-17T02:14:58;15.20;99.90
36594;DHT22;22603;47.900;8.146;2023-08-17T02:17:45;15.20;99.90
36594;DHT22;22603;47.900;8.146;2023-08-17T02:20:31;15.20;99.90
36594;DHT22;22603;47.900;8.146;2023-08-17T02:23:18;15.20;99.90
36594;DHT22;22603;47.900;8.146;2023-08-17T02:26:05;15.20;99.90
36594;DHT22;22603;47.900;8.146;2023-08-17T02:28:52;15.10;99.90
36594;DHT22;22603;47.900;8.146;2023-08-17T02:31:39;15.10;99.90
36594;DHT22;22603;47.900;8.146;2023-08-17T02:34:26;15.00;99.90
36594;DHT22;22603;47.900;8.146;2023-08-17T02:37:13;15.00;99.90
36594;DHT22;22603;47.900;8.146;2023-08-17T02:39:59;15.00;99.90
36594;DHT22;22603;47.900;8.146;2023-08-17T02:42:46;15.00;99.90
36594;DHT22;22603;47.900;8.146;2023-08-17T02:45:33;14.90;99.90
36594;DHT22;22603;47.900;8.146;2023-08-17T02:48:21;14.90;99.90
36594;DHT22;22603;47.900;8.146;2023-08-17T02:51:08;14.90;99.90
36594;DHT22;22603;47.900;8.146;2023-08-17T02:53:55;14.90;99.90
36594;DHT22;22603;47.900;8.146;2023-08-17T02:56:41;14.90;99.90
36594;DHT22;22603;47.900;8.146;2023-08-17T02:59:28;14.80;99.90
36594;DHT22;22603;47.900;8.146;2023-08-17T03:02:14;14.80;99.90
36594;DHT22;22603;47.900;8.146;2023-08-17T03:05:03;14.80;99.90
36594;DHT22;22603;47.900;8.146;2023-08-17T03:07:50;14.80;99.90
36594;DHT22;22603;47.900;8.146;2023-08-17T03:10:37;14.80;99.90
36594;DHT22;22603;47.900;8.146;2023-08-17T03:13:24;14.80;99.90
36594;DHT22;22603;47.900;8.146;2023-08-17T03:16:10;14.70;99.90
36594;DHT22;22603;47.900;8.146;2023-08-17T03:18:57;14.70;99.90
36594;DHT22;22603;47.900;8.146;2023-08-17T03:21:45;14.70;99.90
36594;DHT22;22603;47.900;8.146;2023-08-17T03:24:32;14.60;99.90
36594;DHT22;22603;47.900;8.146;2023-08-17T03:27:19;14.60;99.90
36594;DHT22;22603;47.900;8.146;2023-08-17T03:30:06;14.60;99.90
36594;DHT22;22603;47.900;8.146;2023-08-17T03:32:53;14.50;99.90
36594;DHT22;22603;47.900;8.146;2023-08-17T03:35:40;14.50;99.90
36594;DHT22;22603;47.900;8.146;2023-08-17T03:38:28;14.50;99.90
36594;DHT22;22603;47.900;8.146;2023-08-17T03:41:14;14.50;99.90
36594;DHT22;22603;47.900;8.146;2023-08-17T03:44:01;14.50;99.90
36594;DHT22;22603;47.900;8.146;2023-08-17T03:46:48;14.50;99.90
36594;DHT22;22603;47.900;8.146;2023-08-17T03:49:34;14.50;99.90
36594;DHT22;22603;47.900;8.146;2023-08-17T03:52:21;14.50;99.90
36594;DHT22;22603;47.900;8.146;2023-08-17T03:55:09;14.40;99.90
36594;DHT22;22603;47.900;8.146;2023-08-17T03:57:56;14.40;99.90
36594;DHT22;22603;47.900;8.146;2023-08-17T04:00:49;14.40;99.90
36594;DHT22;22603;47.900;8.146;2023-08-17T04:03:35;14.40;99.90
36594;DHT22;22603;47.900;8.146;2023-08-17T04:06:22;14.40;99.90
36594;DHT22;22603;47.900;8.146;2023-08-17T04:09:09;14.40;99.90
36594;DHT22;22603;47.900;8.146;2023-08-17T04:11:58;14.30;99.90
36594;DHT22;22603;47.900;8.146;2023-08-17T04:14:44;14.30;99.90
36594;DHT22;22603;47.900;8.146;2023-08-17T04:17:31;14.30;99.90
36594;DHT22;22603;47.900;8.146;2023-08-17T04:20:18;14.30;99.90
36594;DHT22;22603;47.900;8.146;2023-08-17T04:23:05;14.30;99.90
36594;DHT22;22603;47.900;8.146;2023-08-17T04:25:51;14.30;99.90
36594;DHT22;22603;47.900;8.146;2023-08-17T04:28:41;14.30;99.90
36594;DHT22;22603;47.900;8.146;2023-08-17T04:31:28;14.20;99.90
36594;DHT22;22603;47.900;8.146;2023-08-17T04:34:14;14.20;99.90
36594;DHT22;22603;47.900;8.146;2023-08-17T04:37:01;14.20;99.90
36594;DHT22;22603;47.900;8.146;2023-08-17T04:39:48;14.20;99.90
36594;DHT22;22603;47.900;8.146;2023-08-17T04:42:35;14.30;99.90
36594;DHT22;22603;47.900;8.146;2023-08-17T04:45:23;14.30;99.90
36594;DHT22;22603;47.900;8.146;2023-08-17T04:48:10;14.30;99.90
36594;DHT22;22603;47.900;8.146;2023-08-17T04:50:56;14.40;99.90
36594;DHT22;22603;47.900;8.146;2023-08-17T04:53:43;14.40;99.90
36594;DHT22;22603;47.900;8.146;2023-08-17T04:56:30;14.40;99.90
36594;DHT22;22603;47.900;8.146;2023-08-17T04:59:17;14.40;99.90
36594;DHT22;22603;47.900;8.146;2023-08-17T05:02:05;14.50;99.90
36594;DHT22;22603;47.900;8.146;2023-08-17T05:04:51;14.50;99.90
36594;DHT22;22603;47.900;8.146;2023-08-17T05:07:38;14.60;99.90
36594;DHT22;22603;47.900;8.146;2023-08-17T05:10:25;14.60;99.90
36594;DHT22;22603;47.900;8.146;2023-08-17T05:13:12;14.60;99.90
36594;DHT22;22603;47.900;8.146;2023-08-17T05:15:59;14.60;99.90
36594;DHT22;22603;47.900;8.146;2023-08-17T05:18:47;14.70;99.90
36594;DHT22;22603;47.900;8.146;2023-08-17T05:21:35;14.70;99.90
36594;DHT22;22603;47.900;8.146;2023-08-17T05:24:25;14.80;99.90
36594;DHT22;22603;47.900;8.146;2023-08-17T05:27:11;14.90;99.90
36594;DHT22;22603;47.900;8.146;2023-08-17T05:29:58;14.90;99.90
36594;DHT22;22603;47.900;8.146;2023-08-17T05:32:44;15.10;99.90
36594;DHT22;22603;47.900;8.146;2023-08-17T05:35:33;15.20;99.90
36594;DHT22;22603;47.900;8.146;2023-08-17T05:38:20;15.30;99.90
36594;DHT22;22603;47.900;8.146;2023-08-17T05:41:09;15.30;99.90
36594;DHT22;22603;47.900;8.146;2023-08-17T05:43:57;15.40;99.90
36594;DHT22;22603;47.900;8.146;2023-08-17T05:46:44;15.50;99.90
36594;DHT22;22603;47.900;8.146;2023-08-17T05:49:32;15.60;99.90
36594;DHT22;22603;47.900;8.146;2023-08-17T05:52:20;15.70;99.90
36594;DHT22;22603;47.900;8.146;2023-08-17T05:55:08;15.80;99.90
36594;DHT22;22603;47.900;8.146;2023-08-17T05:57:55;15.80;99.90
36594;DHT22;22603;47.900;8.146;2023-08-17T06:00:43;16.00;99.90
36594;DHT22;22603;47.900;8.146;2023-08-17T06:03:31;16.20;99.90
36594;DHT22;22603;47.900;8.146;2023-08-17T06:06:19;16.40;99.90
36594;DHT22;22603;47.900;8.146;2023-08-17T06:09:08;16.60;99.90
36594;DHT22;22603;47.900;8.146;2023-08-17T06:11:55;16.80;99.90
36594;DHT22;22603;47.900;8.146;2023-08-17T06:14:43;16.90;99.90
36594;DHT22;22603;47.900;8.146;2023-08-17T06:17:30;17.00;99.90
36594;DHT22;22603;47.900;8.146;2023-08-17T06:20:18;17.00;99.90
36594;DHT22;22603;47.900;8.146;2023-08-17T06:23:05;17.10;99.90
36594;DHT22;22603;47.900;8.146;2023-08-17T06:25:57;17.30;99.90
36594;DHT22;22603;47.900;8.146;2023-08-17T06:28:45;17.20;99.90
36594;DHT22;22603;47.900;8.146;2023-08-17T06:31:32;17.30;99.90
36594;DHT22;22603;47.900;8.146;2023-08-17T06:34:20;17.40;99.90
36594;DHT22;22603;47.900;8.146;2023-08-17T06:37:08;17.50;99.90
36594;DHT22;22603;47.900;8.146;2023-08-17T06:39:55;17.60;99.90
36594;DHT22;22603;47.900;8.146;2023-08-17T06:42:43;18.00;99.90
36594;DHT22;22603;47.900;8.146;2023-08-17T06:45:31;18.60;99.90
36594;DHT22;22603;47.900;8.146;2023-08-17T06:48:18;19.10;99.90
36594;DHT22;22603;47.900;8.146;2023-08-17T06:51:05;19.50;99.90
36594;DHT22;22603;47.900;8.146;2023-08-17T06:53:52;19.80;99.90
36594;DHT22;22603;47.900;8.146;2023-08-17T06:56:39;20.20;99.90
36594;DHT22;22603;47.900;8.146;2023-08-17T06:59:27;20.50;99.90
36594;DHT22;22603;47.900;8.146;2023-08-17T07:02:14;21.00;99.90
36594;DHT22;22603;47.900;8.146;2023-08-17T07:05:00;21.50;99.90
36594;DHT22;22603;47.900;8.146;2023-08-17T07:07:48;21.60;99.90
36594;DHT22;22603;47.900;8.146;2023-08-17T07:10:35;22.10;99.90
36594;DHT22;22603;47.900;8.146;2023-08-17T07:13:22;22.20;99.90
36594;DHT22;22603;47.900;8.146;2023-08-17T07:16:11;22.50;99.90
36594;DHT22;22603;47.900;8.146;2023-08-17T07:18:57;22.60;99.90
36594;DHT22;22603;47.900;8.146;2023-08-17T07:21:44;22.90;99.90
36594;DHT22;22603;47.900;8.146;2023-08-17T07:24:31;23.10;99.90
36594;DHT22;22603;47.900;8.146;2023-08-17T07:27:18;23.10;99.90
36594;DHT22;22603;47.900;8.146;2023-08-17T07:30:05;23.20;99.90
36594;DHT22;22603;47.900;8.146;2023-08-17T07:32:54;23.50;99.90
36594;DHT22;22603;47.900;8.146;2023-08-17T07:35:41;23.60;99.90
36594;DHT22;22603;47.900;8.146;2023-08-17T07:38:27;23.90;99.90
36594;DHT22;22603;47.900;8.146;2023-08-17T07:41:14;24.20;99.90
36594;DHT22;22603;47.900;8.146;2023-08-17T07:44:01;24.30;99.90
36594;DHT22;22603;47.900;8.146;2023-08-17T07:46:48;24.90;99.90
36594;DHT22;22603;47.900;8.146;2023-08-17T07:49:36;25.00;99.90
36594;DHT22;22603;47.900;8.146;2023-08-17T07:52:22;25.00;99.90
36594;DHT22;22603;47.900;8.146;2023-08-17T07:55:09;25.10;99.90
36594;DHT22;22603;47.900;8.146;2023-08-17T07:57:56;25.20;99.90
36594;DHT22;22603;47.900;8.146;2023-08-17T08:00:43;25.30;99.90
36594;DHT22;22603;47.900;8.146;2023-08-17T08:03:30;25.80;99.90
36594;DHT22;22603;47.900;8.146;2023-08-17T08:06:18;26.50;99.90
36594;DHT22;22603;47.900;8.146;2023-08-17T08:09:05;26.20;99.90
36594;DHT22;22603;47.900;8.146;2023-08-17T08:11:53;25.80;99.90
36594;DHT22;22603;47.900;8.146;2023-08-17T08:14:42;26.00;99.90
36594;DHT22;22603;47.900;8.146;2023-08-17T08:17:28;26.10;99.90
36594;DHT22;22603;47.900;8.146;2023-08-17T08:20:16;26.10;99.90
36594;DHT22;22603;47.900;8.146;2023-08-17T08:23:05;26.30;99.90
36594;DHT22;22603;47.900;8.146;2023-08-17T08:25:51;25.80;99.90
36594;DHT22;22603;47.900;8.146;2023-08-17T08:28:39;25.60;99.90
36594;DHT22;22603;47.900;8.146;2023-08-17T08:31:26;25.40;99.90
36594;DHT22;22603;47.900;8.146;2023-08-17T08:34:13;25.60;99.90
36594;DHT22;22603;47.900;8.146;2023-08-17T08:36:59;25.50;99.90
36594;DHT22;22603;47.900;8.146;2023-08-17T08:39:51;25.70;99.90
36594;DHT22;22603;47.900;8.146;2023-08-17T08:42:39;25.80;99.90
36594;DHT22;22603;47.900;8.146;2023-08-17T08:45:28;26.10;99.90
36594;DHT22;22603;47.900;8.146;2023-08-17T08:48:18;26.10;99.90
36594;DHT22;22603;47.900;8.146;2023-08-17T08:51:08;26.30;99.90
36594;DHT22;22603;47.900;8.146;2023-08-17T08:54:01;26.40;99.90
36594;DHT22;22603;47.900;8.146;2023-08-17T08:56:54;26.90;99.90
36594;DHT22;22603;47.900;8.146;2023-08-17T08:59:45;28.00;99.90
36594;DHT22;22603;47.900;8.146;2023-08-17T09:02:33;28.40;99.90
36594;DHT22;22603;47.900;8.146;2023-08-17T09:05:21;29.00;99.90
36594;DHT22;22603;47.900;8.146;2023-08-17T09:08:09;29.20;99.90
36594;DHT22;22603;47.900;8.146;2023-08-17T09:11:02;29.00;99.90
36594;DHT22;22603;47.900;8.146;2023-08-17T09:13:50;28.80;99.90
36594;DHT22;22603;47.900;8.146;2023-08-17T09:16:38;28.60;99.90
36594;DHT22;22603;47.900;8.146;2023-08-17T09:19:25;28.80;99.90
36594;DHT22;22603;47.900;8.146;2023-08-17T09:22:13;29.60;99.90
36594;DHT22;22603;47.900;8.146;2023-08-17T09:25:00;30.30;99.90
36594;DHT22;22603;47.900;8.146;2023-08-17T09:27:48;30.90;99.90
36594;DHT22;22603;47.900;8.146;2023-08-17T09:30:52;31.80;99.90
36594;DHT22;22603;47.900;8.146;2023-08-17T09:33:39;32.40;99.90
36594;DHT22;22603;47.900;8.146;2023-08-17T09:36:29;33.00;99.90
36594;DHT22;22603;47.900;8.146;2023-08-17T09:39:17;33.20;99.90
36594;DHT22;22603;47.900;8.146;2023-08-17T09:42:04;32.90;99.90
36594;DHT22;22603;47.900;8.146;2023-08-17T09:44:51;32.50;99.90
36594;DHT22;22603;47.900;8.146;2023-08-17T09:47:42;31.90;99.90
36594;DHT22;22603;47.900;8.146;2023-08-17T09:50:29;31.80;99.90
36594;DHT22;22603;47.900;8.146;2023-08-17T09:53:17;31.20;99.90
36594;DHT22;22603;47.900;8.146;2023-08-17T09:56:05;31.20;99.90
36594;DHT22;22603;47.900;8.146;2023-08-17T09:58:53;31.10;99.90
36594;DHT22;22603;47.900;8.146;2023-08-17T10:01:40;31.40;99.90
36594;DHT22;22603;47.900;8.146;2023-08-17T10:04:31;32.10;99.90
36594;DHT22;22603;47.900;8.146;2023-08-17T10:07:19;32.10;99.90
36594;DHT22;22603;47.900;8.146;2023-08-17T10:10:07;32.30;99.90
36594;DHT22;22603;47.900;8.146;2023-08-17T10:13:05;32.90;99.90
36594;DHT22;22603;47.900;8.146;2023-08-17T10:16:00;32.90;99.90
36594;DHT22;22603;47.900;8.146;2023-08-17T10:18:53;33.20;99.90
36594;DHT22;22603;47.900;8.146;2023-08-17T10:21:46;33.70;99.90
36594;DHT22;22603;47.900;8.146;2023-08-17T10:24:34;34.10;99.90
36594;DHT22;22603;47.900;8.146;2023-08-17T10:27:24;34.30;99.90
36594;DHT22;22603;47.900;8.146;2023-08-17T10:30:14;34.50;99.90
36594;DHT22;22603;47.900;8.146;2023-08-17T10:33:02;34.60;99.90
36594;DHT22;22603;47.900;8.146;2023-08-17T10:35:49;35.00;99.90
36594;DHT22;22603;47.900;8.146;2023-08-17T10:38:38;35.20;99.90
36594;DHT22;22603;47.900;8.146;2023-08-17T10:41:25;35.20;99.90
36594;DHT22;22603;47.900;8.146;2023-08-17T10:44:12;35.30;99.90
36594;DHT22;22603;47.900;8.146;2023-08-17T10:47:18;35.30;99.90
36594;DHT22;22603;47.900;8.146;2023-08-17T10:50:06;35.10;99.90
36594;DHT22;22603;47.900;8.146;2023-08-17T10:52:54;34.80;99.90
36594;DHT22;22603;47.900;8.146;2023-08-17T10:55:46;33.90;99.90
36594;DHT22;22603;47.900;8.146;2023-08-17T10:58:37;32.90;99.90
36594;DHT22;22603;47.900;8.146;2023-08-17T11:01:33;32.20;99.90
36594;DHT22;22603;47.900;8.146;2023-08-17T11:04:21;32.90;99.90
36594;DHT22;22603;47.900;8.146;2023-08-17T11:07:13;33.70;99.90
36594;DHT22;22603;47.900;8.146;2023-08-17T11:10:11;34.00;99.90
36594;DHT22;22603;47.900;8.146;2023-08-17T11:13:00;34.40;99.90
36594;DHT22;22603;47.900;8.146;2023-08-17T11:15:47;34.50;99.90
36594;DHT22;22603;47.900;8.146;2023-08-17T11:18:35;34.50;99.90
36594;DHT22;22603;47.900;8.146;2023-08-17T11:21:21;34.70;99.90
36594;DHT22;22603;47.900;8.146;2023-08-17T11:24:10;34.20;99.90
36594;DHT22;22603;47.900;8.146;2023-08-17T11:26:57;34.40;99.90
36594;DHT22;22603;47.900;8.146;2023-08-17T11:29:45;34.60;99.90
36594;DHT22;22603;47.900;8.146;2023-08-17T11:32:32;34.80;99.90
36594;DHT22;22603;47.900;8.146;2023-08-17T11:35:19;34.70;99.90
36594;DHT22;22603;47.900;8.146;2023-08-17T11:38:07;35.20;99.90
36594;DHT22;22603;47.900;8.146;2023-08-17T11:40:54;35.00;99.90
36594;DHT22;22603;47.900;8.146;2023-08-17T11:43:42;34.80;99.90
36594;DHT22;22603;47.900;8.146;2023-08-17T11:46:32;34.90;99.90
36594;DHT22;22603;47.900;8.146;2023-08-17T11:49:19;35.40;99.90
36594;DHT22;22603;47.900;8.146;2023-08-17T11:52:09;34.30;99.90
36594;DHT22;22603;47.900;8.146;2023-08-17T11:54:56;33.40;99.90
36594;DHT22;22603;47.900;8.146;2023-08-17T11:57:43;34.00;99.90
36594;DHT22;22603;47.900;8.146;2023-08-17T12:00:35;34.30;99.90
36594;DHT22;22603;47.900;8.146;2023-08-17T12:03:24;33.60;99.90
36594;DHT22;22603;47.900;8.146;2023-08-17T12:06:11;33.00;99.90
36594;DHT22;22603;47.900;8.146;2023-08-17T12:08:59;33.00;99.90
36594;DHT22;22603;47.900;8.146;2023-08-17T12:11:46;32.90;99.90
36594;DHT22;22603;47.900;8.146;2023-08-17T12:14:33;33.10;99.90
36594;DHT22;22603;47.900;8.146;2023-08-17T12:17:21;32.70;99.90
36594;DHT22;22603;47.900;8.146;2023-08-17T12:20:15;32.70;99.90
36594;DHT22;22603;47.900;8.146;2023-08-17T12:23:02;32.90;99.90
36594;DHT22;22603;47.900;8.146;2023-08-17T12:25:53;33.80;99.90
36594;DHT22;22603;47.900;8.146;2023-08-17T12:28:40;34.40;99.90
36594;DHT22;22603;47.900;8.146;2023-08-17T12:31:29;34.70;99.90
36594;DHT22;22603;47.900;8.146;2023-08-17T12:34:16;34.00;99.90
36594;DHT22;22603;47.900;8.146;2023-08-17T12:37:04;33.40;99.90
36594;DHT22;22603;47.900;8.146;2023-08-17T12:39:51;31.60;99.90
36594;DHT22;22603;47.900;8.146;2023-08-17T12:42:37;31.20;99.90
36594;DHT22;22603;47.900;8.146;2023-08-17T12:45:24;30.90;99.90
36594;DHT22;22603;47.900;8.146;2023-08-17T12:48:13;30.20;99.90
36594;DHT22;22603;47.900;8.146;2023-08-17T12:51:00;30.60;99.90
36594;DHT22;22603;47.900;8.146;2023-08-17T12:53:50;30.00;99.90
36594;DHT22;22603;47.900;8.146;2023-08-17T12:56:37;29.40;99.90
36594;DHT22;22603;47.900;8.146;2023-08-17T12:59:23;28.80;99.90
36594;DHT22;22603;47.900;8.146;2023-08-17T13:02:10;29.70;99.90
36594;DHT22;22603;47.900;8.146;2023-08-17T13:04:57;30.60;99.90
36594;DHT22;22603;47.900;8.146;2023-08-17T13:07:44;30.80;99.90
36594;DHT22;22603;47.900;8.146;2023-08-17T13:10:32;30.50;99.90
36594;DHT22;22603;47.900;8.146;2023-08-17T13:13:19;30.40;99.90
36594;DHT22;22603;47.900;8.146;2023-08-17T13:16:06;30.40;99.90
36594;DHT22;22603;47.900;8.146;2023-08-17T13:18:54;30.50;99.90
36594;DHT22;22603;47.900;8.146;2023-08-17T13:21:40;30.50;99.90
36594;DHT22;22603;47.900;8.146;2023-08-17T13:24:27;30.40;99.90
36594;DHT22;22603;47.900;8.146;2023-08-17T13:27:16;29.80;99.90
36594;DHT22;22603;47.900;8.146;2023-08-17T13:30:03;30.20;99.90
36594;DHT22;22603;47.900;8.146;2023-08-17T13:32:51;30.30;99.90
36594;DHT22;22603;47.900;8.146;2023-08-17T13:35:37;30.40;99.90
36594;DHT22;22603;47.900;8.146;2023-08-17T13:38:27;30.60;99.90
36594;DHT22;22603;47.900;8.146;2023-08-17T13:41:14;31.00;99.90
36594;DHT22;22603;47.900;8.146;2023-08-17T13:44:02;30.10;99.90
36594;DHT22;22603;47.900;8.146;2023-08-17T13:46:49;30.30;99.90
36594;DHT22;22603;47.900;8.146;2023-08-17T13:49:36;30.70;99.90
36594;DHT22;22603;47.900;8.146;2023-08-17T13:52:22;30.90;99.90
36594;DHT22;22603;47.900;8.146;2023-08-17T13:55:09;31.00;99.90
36594;DHT22;22603;47.900;8.146;2023-08-17T13:57:59;30.50;99.90
36594;DHT22;22603;47.900;8.146;2023-08-17T14:00:47;30.30;99.90
36594;DHT22;22603;47.900;8.146;2023-08-17T14:03:34;30.30;99.90
36594;DHT22;22603;47.900;8.146;2023-08-17T14:06:21;29.30;99.90
36594;DHT22;22603;47.900;8.146;2023-08-17T14:09:07;28.60;99.90
36594;DHT22;22603;47.900;8.146;2023-08-17T14:11:54;28.80;99.90
36594;DHT22;22603;47.900;8.146;2023-08-17T14:14:41;29.10;99.90
36594;DHT22;22603;47.900;8.146;2023-08-17T14:17:29;29.00;99.90
36594;DHT22;22603;47.900;8.146;2023-08-17T14:20:16;29.10;99.90
36594;DHT22;22603;47.900;8.146;2023-08-17T14:23:03;29.20;99.90
36594;DHT22;22603;47.900;8.146;2023-08-17T14:25:49;29.10;99.90
36594;DHT22;22603;47.900;8.146;2023-08-17T14:28:37;29.10;99.90
36594;DHT22;22603;47.900;8.146;2023-08-17T14:31:28;29.10;99.90
36594;DHT22;22603;47.900;8.146;2023-08-17T14:34:17;28.80;99.90
36594;DHT22;22603;47.900;8.146;2023-08-17T14:37:07;28.70;99.90
36594;DHT22;22603;47.900;8.146;2023-08-17T14:39:55;28.70;99.90
36594;DHT22;22603;47.900;8.146;2023-08-17T14:42:42;28.90;99.90
36594;DHT22;22603;47.900;8.146;2023-08-17T14:45:28;29.10;99.90
36594;DHT22;22603;47.900;8.146;2023-08-17T14:48:15;29.20;99.90
36594;DHT22;22603;47.900;8.146;2023-08-17T14:51:08;29.20;99.90
36594;DHT22;22603;47.900;8.146;2023-08-17T14:53:55;29.30;99.90
36594;DHT22;22603;47.900;8.146;2023-08-17T14:56:41;29.20;99.90
36594;DHT22;22603;47.900;8.146;2023-08-17T14:59:29;29.20;99.90
36594;DHT22;22603;47.900;8.146;2023-08-17T15:02:15;29.00;99.90
36594;DHT22;22603;47.900;8.146;2023-08-17T15:05:06;28.90;99.90
36594;DHT22;22603;47.900;8.146;2023-08-17T15:07:54;28.60;99.90
36594;DHT22;22603;47.900;8.146;2023-08-17T15:10:41;28.50;99.90
36594;DHT22;22603;47.900;8.146;2023-08-17T15:13:28;28.40;99.90
36594;DHT22;22603;47.900;8.146;2023-08-17T15:16:15;28.30;99.90
36594;DHT22;22603;47.900;8.146;2023-08-17T15:19:02;28.20;99.90
36594;DHT22;22603;47.900;8.146;2023-08-17T15:21:49;28.30;99.90
36594;DHT22;22603;47.900;8.146;2023-08-17T15:24:37;28.50;99.90
36594;DHT22;22603;47.900;8.146;2023-08-17T15:27:24;28.60;99.90
36594;DHT22;22603;47.900;8.146;2023-08-17T15:30:11;28.80;99.90
36594;DHT22;22603;47.900;8.146;2023-08-17T15:33:00;28.70;99.90
36594;DHT22;22603;47.900;8.146;2023-08-17T15:35:47;28.60;99.90
36594;DHT22;22603;47.900;8.146;2023-08-17T15:38:33;28.40;99.90
36594;DHT22;22603;47.900;8.146;2023-08-17T15:41:21;28.50;99.90
36594;DHT22;22603;47.900;8.146;2023-08-17T15:44:08;28.30;99.90
36594;DHT22;22603;47.900;8.146;2023-08-17T15:46:55;28.40;99.90
36594;DHT22;22603;47.900;8.146;2023-08-17T15:49:46;28.50;99.90
36594;DHT22;22603;47.900;8.146;2023-08-17T15:52:32;28.50;99.90
36594;DHT22;22603;47.900;8.146;2023-08-17T15:55:19;28.50;99.90
36594;DHT22;22603;47.900;8.146;2023-08-17T15:58:07;28.10;99.90
36594;DHT22;22603;47.900;8.146;2023-08-17T16:00:55;27.30;99.90
36594;DHT22;22603;47.900;8.146;2023-08-17T16:03:42;27.30;99.90
36594;DHT22;22603;47.900;8.146;2023-08-17T16:06:29;26.90;99.90
36594;DHT22;22603;47.900;8.146;2023-08-17T16:09:16;26.90;99.90
36594;DHT22;22603;47.900;8.146;2023-08-17T16:12:03;26.70;99.90
36594;DHT22;22603;47.900;8.146;2023-08-17T16:14:51;26.30;99.90
36594;DHT22;22603;47.900;8.146;2023-08-17T16:17:38;26.20;99.90
36594;DHT22;22603;47.900;8.146;2023-08-17T16:20:25;26.10;99.90
36594;DHT22;22603;47.900;8.146;2023-08-17T16:23:14;26.00;99.90
36594;DHT22;22603;47.900;8.146;2023-08-17T16:26:07;25.80;99.90
36594;DHT22;22603;47.900;8.146;2023-08-17T16:28:53;25.80;99.90
36594;DHT22;22603;47.900;8.146;2023-08-17T16:31:41;25.80;99.90
36594;DHT22;22603;47.900;8.146;2023-08-17T16:34:29;25.70;99.90
36594;DHT22;22603;47.900;8.146;2023-08-17T16:37:16;25.60;99.90
36594;DHT22;22603;47.900;8.146;2023-08-17T16:40:04;25.40;99.90
36594;DHT22;22603;47.900;8.146;2023-08-17T16:42:51;25.20;99.90
36594;DHT22;22603;47.900;8.146;2023-08-17T16:45:45;25.10;99.90
36594;DHT22;22603;47.900;8.146;2023-08-17T16:48:33;25.00;99.90
36594;DHT22;22603;47.900;8.146;2023-08-17T16:51:19;25.00;99.90
36594;DHT22;22603;47.900;8.146;2023-08-17T16:54:06;25.00;99.90
36594;DHT22;22603;47.900;8.146;2023-08-17T16:56:53;24.70;99.90
36594;DHT22;22603;47.900;8.146;2023-08-17T16:59:40;24.80;99.90
36594;DHT22;22603;47.900;8.146;2023-08-17T17:02:27;24.90;99.90
36594;DHT22;22603;47.900;8.146;2023-08-17T17:05:15;25.10;99.90
36594;DHT22;22603;47.900;8.146;2023-08-17T17:08:02;24.90;99.90
36594;DHT22;22603;47.900;8.146;2023-08-17T17:10:50;24.90;99.90
36594;DHT22;22603;47.900;8.146;2023-08-17T17:13:36;24.90;99.90
36594;DHT22;22603;47.900;8.146;2023-08-17T17:16:23;24.80;99.90
36594;DHT22;22603;47.900;8.146;2023-08-17T17:19:10;24.80;99.90
36594;DHT22;22603;47.900;8.146;2023-08-17T17:21:58;24.60;99.90
36594;DHT22;22603;47.900;8.146;2023-08-17T17:24:45;24.40;99.90
36594;DHT22;22603;47.900;8.146;2023-08-17T17:27:34;24.30;99.90
36594;DHT22;22603;47.900;8.146;2023-08-17T17:30:23;24.20;99.90
36594;DHT22;22603;47.900;8.146;2023-08-17T17:33:10;24.20;99.90
36594;DHT22;22603;47.900;8.146;2023-08-17T17:35:57;24.10;99.90
36594;DHT22;22603;47.900;8.146;2023-08-17T17:38:45;24.10;99.90